Terminal Aerodrome Forecast
Issued by NWS

Home | Current Version | Previous Version | Text Only | Print | Product List | Glossary On
Versions: 1 2 3 4 5 6 7 8 9 10 11 12 13 14 15 16 17 18
000
FTAK31 PAJN 192300
TAFAWG
TAF
PAWG 192325Z 2000/2024 14005KT P6SM -SHRA SCT025 OVC040
     FM200600 10008KT P6SM -RA SCT025 OVC040
     FM201100 11018G28KT 5SM RA BR SCT015 OVC025
     FM202200 15006KT 5SM -RA BR BKN015 OVC025
      AMD LTD TO CLD VIS AND WIND 2006/2015=

USA.gov is the U.S. government's official web portal to all federal, state and local government web resources and services.